| time (UTC) | temp F | wind direction | speed knots | gust knots | rain 1hr in | rain 24hr in | rain mn in | humidity % | barometer mb |
| 20260510093004 | 51 | 136 | 0.0 | 0.9 | 0.00 | 0.18 | 0.00 | 94 | 1011.8 |
| 20260510092504 | 51 | 136 | 0.0 | 0.9 | 0.00 | 0.18 | 0.00 | 94 | 1011.9 |
| 20260510092004 | 51 | 136 | 0.0 | 0.9 | 0.00 | 0.18 | 0.00 | 93 | 1011.9 |
| 20260510091504 | 51 | 136 | 0.9 | 0.9 | 0.00 | 0.18 | 0.00 | 93 | 1011.9 |
| 20260510090504 | 51 | 136 | 0.9 | 1.7 | 0.00 | 0.18 | 0.00 | 93 | 1011.7 |
| 20260510090004 | 51 | 136 | 1.7 | 2.6 | 0.00 | 0.18 | 0.00 | 93 | 1011.7 |
| 20260510085504 | 51 | 136 | 1.7 | 4.3 | 0.00 | 0.18 | 0.00 | 93 | 1011.7 |
| 20260510085004 | 51 | 136 | 1.7 | 2.6 | 0.00 | 0.18 | 0.00 | 93 | 1011.8 |
| 20260510084504 | 51 | 136 | 1.7 | 2.6 | 0.00 | 0.18 | 0.00 | 93 | 1011.8 |
| 20260510084004 | 51 | 136 | 2.6 | 2.6 | 0.00 | 0.18 | 0.00 | 94 | 1011.8 |
| 20260510083004 | 51 | 136 | 2.6 | 4.3 | 0.00 | 0.18 | 0.00 | 94 | 1011.8 |
| 20260510082504 | 51 | 136 | 4.3 | 6.1 | 0.00 | 0.18 | 0.00 | 94 | 1011.9 |
| 20260510082004 | 51 | 137 | 4.3 | 6.1 | 0.00 | 0.18 | 0.00 | 93 | 1012.0 |
| 20260510081504 | 51 | 144 | 2.6 | 4.3 | 0.00 | 0.18 | 0.00 | 93 | 1012.0 |
| 20260510081004 | 51 | 144 | 2.6 | 4.3 | 0.00 | 0.18 | 0.00 | 93 | 1012.1 |
| 20260510080504 | 51 | 299 | 1.7 | 2.6 | 0.00 | 0.18 | 0.00 | 93 | 1012.1 |
| 20260510080004 | 51 | 302 | 1.7 | 2.6 | 0.00 | 0.18 | 0.00 | 93 | 1012.1 |
| 20260510075004 | 51 | 302 | 0.0 | 0.9 | 0.00 | 0.18 | 0.00 | 93 | 1012.2 |
| 20260510074504 | 51 | 302 | 0.9 | 1.7 | 0.00 | 0.18 | 0.00 | 93 | 1012.2 |
| 20260510074004 | 50 | 302 | 0.9 | 1.7 | 0.00 | 0.18 | 0.00 | 93 | 1012.3 |
| 20260510073505 | 50 | 302 | 0.0 | 1.7 | 0.00 | 0.18 | 0.00 | 93 | 1012.4 |
| 20260510073004 | 50 | 302 | 0.9 | 2.6 | 0.00 | 0.18 | 0.00 | 93 | 1012.3 |
| 20260510072004 | 50 | 304 | 2.6 | 7.8 | 0.00 | 0.18 | 0.00 | 93 | 1012.2 |
| 20260510070504 | 50 | 287 | 1.7 | 4.3 | 0.00 | 0.18 | 0.00 | 93 | 1011.9 |
| 20260510070004 | 49 | 266 | 0.0 | 0.0 | 0.00 | 0.18 | 0.00 | 93 | 1011.6 |
| 20260510064504 | 50 | 265 | 0.9 | 1.7 | 0.00 | 0.18 | 0.00 | 93 | 1011.7 |
| 20260510064004 | 49 | 265 | 0.9 | 1.7 | 0.00 | 0.18 | 0.00 | 93 | 1011.8 |
| 20260510063504 | 49 | 265 | 0.9 | 1.7 | 0.00 | 0.18 | 0.00 | 93 | 1011.9 |
| 20260510063004 | 49 | 265 | 1.7 | 1.7 | 0.00 | 0.18 | 0.00 | 93 | 1011.9 |
| 20260510062504 | 49 | 266 | 0.9 | 0.9 | 0.00 | 0.18 | 0.00 | 93 | 1011.8 |
| 20260510062004 | 49 | 266 | 0.0 | 0.9 | 0.00 | 0.18 | 0.00 | 93 | 1011.9 |
| 20260510061505 | 49 | 265 | 0.9 | 1.7 | 0.00 | 0.18 | 0.00 | 93 | 1011.9 |
| 20260510061005 | 49 | 265 | 0.9 | 1.7 | 0.00 | 0.18 | 0.00 | 93 | 1012.0 |
| 20260510060505 | 49 | 265 | 0.0 | 0.0 | 0.00 | 0.18 | 0.00 | 93 | 1012.0 |
| 20260510060004 | 49 | 265 | 0.9 | 1.7 | 0.00 | 0.18 | 0.00 | 93 | 1012.0 |
| 20260510055504 | 49 | 265 | 0.0 | 1.7 | 0.00 | 0.18 | 0.00 | 93 | 1012.1 |
| 20260510055004 | 49 | 265 | 0.9 | 2.6 | 0.00 | 0.18 | 0.00 | 93 | 1012.3 |
| 20260510054504 | 48 | 265 | 2.6 | 2.6 | 0.00 | 0.18 | 0.00 | 93 | 1012.2 |
| 20260510054004 | 48 | 230 | 1.7 | 2.6 | 0.00 | 0.18 | 0.00 | 93 | 1012.0 |
| 20260510053504 | 48 | 200 | 1.7 | 2.6 | 0.00 | 0.18 | 0.00 | 93 | 1011.8 |
| 20260510053004 | 48 | 178 | 0.9 | 1.7 | 0.00 | 0.18 | 0.00 | 93 | 1011.8 |
| 20260510052504 | 48 | 178 | 0.9 | 1.7 | 0.00 | 0.18 | 0.00 | 93 | 1011.7 |
| 20260510052004 | 49 | 178 | 0.9 | 1.7 | 0.00 | 0.18 | 0.00 | 93 | 1011.6 |
| 20260510051004 | 49 | 178 | 0.0 | 0.0 | 0.00 | 0.18 | 0.00 | 93 | 1011.6 |
| 20260510050504 | 49 | 178 | 0.0 | 0.0 | 0.00 | 0.18 | 0.00 | 93 | 1011.6 |
| 20260510050005 | 49 | 178 | 0.0 | 0.0 | 0.00 | 0.18 | 0.00 | 93 | 1011.6 |
| 20260510045504 | 49 | 178 | 0.0 | 0.9 | 0.00 | 0.18 | 0.00 | 93 | 1011.7 |
| 20260510045004 | 50 | 178 | 0.0 | 0.9 | 0.00 | 0.18 | 0.00 | 93 | 1011.7 |
| 20260510044004 | 50 | 178 | 0.0 | 0.0 | 0.00 | 0.18 | 0.00 | 93 | 1011.7 |
| 20260510043504 | 50 | 178 | 0.0 | 0.9 | 0.00 | 0.18 | 0.00 | 93 | 1011.7 |
| 20260510043005 | 50 | 178 | 0.0 | 0.0 | 0.00 | 0.18 | 0.00 | 93 | 1011.7 |
| 20260510042504 | 50 | 178 | 0.0 | 0.0 | 0.00 | 0.18 | 0.00 | 93 | 1011.7 |
| 20260510042004 | 50 | 178 | 0.0 | 0.9 | 0.00 | 0.18 | 0.00 | 93 | 1011.8 |
| 20260510041504 | 50 | 178 | 0.0 | 1.7 | 0.00 | 0.18 | 0.00 | 93 | 1011.8 |
| 20260510041004 | 51 | 178 | 0.0 | 0.9 | 0.00 | 0.18 | 0.00 | 93 | 1011.7 |
| 20260510040504 | 50 | 178 | 0.0 | 0.9 | 0.00 | 0.18 | 0.00 | 93 | 1011.7 |
| 20260510040004 | 50 | 178 | 0.9 | 1.7 | 0.00 | 0.18 | 0.00 | 93 | 1011.7 |
| 20260510035504 | 50 | 178 | 0.0 | 0.9 | 0.00 | 0.18 | 0.18 | 93 | 1011.7 |
| 20260510034504 | 50 | 178 | 0.0 | 0.9 | 0.00 | 0.18 | 0.18 | 93 | 1011.7 |
| 20260510034004 | 50 | 178 | 0.0 | 0.9 | 0.00 | 0.18 | 0.18 | 93 | 1011.6 |
| 20260510033504 | 50 | 178 | 0.0 | 0.0 | 0.00 | 0.18 | 0.18 | 92 | 1011.7 |
| 20260510033004 | 50 | 178 | 0.0 | 0.9 | 0.00 | 0.18 | 0.18 | 92 | 1011.6 |
| 20260510032004 | 51 | 178 | 0.0 | 1.7 | 0.00 | 0.18 | 0.18 | 92 | 1011.4 |
| 20260510031503 | 51 | 178 | 0.9 | 0.9 | 0.00 | 0.18 | 0.18 | 93 | 1011.4 |
| 20260510030505 | 51 | 178 | 0.0 | 0.0 | 0.00 | 0.18 | 0.18 | 92 | 1011.4 |
| 20260510030004 | 51 | 178 | 0.0 | 0.0 | 0.00 | 0.18 | 0.18 | 92 | 1011.4 |
| 20260510025003 | 51 | 178 | 0.0 | 0.9 | 0.00 | 0.18 | 0.18 | 92 | 1011.4 |
| 20260510023505 | 52 | 178 | 0.0 | 0.9 | 0.00 | 0.18 | 0.18 | 92 | 1011.4 |
| 20260510022504 | 52 | 178 | 0.9 | 1.7 | 0.00 | 0.18 | 0.18 | 92 | 1011.2 |
| 20260510022003 | 53 | 178 | 0.0 | 0.9 | 0.00 | 0.18 | 0.18 | 92 | 1011.3 |
| 20260510021003 | 53 | 178 | 0.0 | 0.9 | 0.00 | 0.18 | 0.18 | 92 | 1011.2 |
| 20260510020504 | 53 | 178 | 0.9 | 1.7 | 0.00 | 0.18 | 0.18 | 92 | 1011.2 |
| 20260510020005 | 53 | 178 | 0.9 | 0.9 | 0.00 | 0.18 | 0.18 | 92 | 1011.2 |
| 20260510015504 | 53 | 178 | 0.9 | 2.6 | 0.00 | 0.18 | 0.18 | 92 | 1011.1 |
| 20260510014504 | 53 | 180 | 1.7 | 2.6 | 0.00 | 0.18 | 0.18 | 91 | 1011.3 |
| 20260510014004 | 53 | 180 | 0.0 | 0.9 | 0.00 | 0.18 | 0.18 | 91 | 1011.2 |
| 20260510013503 | 53 | 180 | 0.0 | 0.9 | 0.00 | 0.18 | 0.18 | 91 | 1011.2 |
| 20260510013004 | 53 | 180 | 0.0 | 0.9 | 0.00 | 0.18 | 0.18 | 91 | 1011.1 |
| 20260510012504 | 54 | 180 | 0.9 | 0.9 | 0.00 | 0.18 | 0.18 | 91 | 1011.1 |
| 20260510012004 | 54 | 180 | 0.0 | 0.9 | 0.00 | 0.18 | 0.18 | 91 | 1011.1 |
| 20260510011504 | 54 | 180 | 0.9 | 0.9 | 0.00 | 0.18 | 0.18 | 90 | 1011.0 |
| 20260510011004 | 54 | 180 | 0.9 | 1.7 | 0.00 | 0.18 | 0.18 | 90 | 1010.9 |
| 20260510010504 | 54 | 180 | 0.9 | 1.7 | 0.00 | 0.18 | 0.18 | 90 | 1010.9 |
| 20260510005505 | 55 | 180 | 0.9 | 1.7 | 0.00 | 0.18 | 0.18 | 89 | 1010.7 |
| 20260510005004 | 55 | 180 | 0.9 | 2.6 | 0.00 | 0.18 | 0.18 | 89 | 1010.7 |
| 20260510004504 | 55 | 180 | 0.9 | 1.7 | 0.00 | 0.18 | 0.18 | 89 | 1010.6 |
| 20260510003504 | 55 | 180 | 0.9 | 1.7 | 0.00 | 0.18 | 0.18 | 88 | 1010.6 |
| 20260510003004 | 56 | 180 | 0.0 | 1.7 | 0.00 | 0.18 | 0.18 | 87 | 1010.4 |
| 20260510002504 | 56 | 180 | 0.9 | 1.7 | 0.00 | 0.18 | 0.18 | 87 | 1010.3 |
| 20260510002004 | 56 | 180 | 0.9 | 1.7 | 0.00 | 0.18 | 0.18 | 87 | 1010.4 |
| 20260510001504 | 56 | 180 | 0.9 | 1.7 | 0.00 | 0.18 | 0.18 | 86 | 1010.2 |
| 20260510001004 | 57 | 180 | 0.9 | 1.7 | 0.00 | 0.18 | 0.18 | 85 | 1010.1 |
| 20260510000504 | 57 | 180 | 0.9 | 1.7 | 0.00 | 0.18 | 0.18 | 85 | 1010.1 |
| 20260510000004 | 57 | 180 | 0.9 | 0.9 | 0.00 | 0.18 | 0.18 | 84 | 1010.1 |
| 20260509235504 | 58 | 180 | 0.0 | 0.0 | 0.00 | 0.18 | 0.18 | 83 | 1010.1 |
| 20260509234504 | 58 | 180 | 0.9 | 1.7 | 0.00 | 0.18 | 0.18 | 81 | 1010.1 |
| 20260509234004 | 59 | 180 | 0.0 | 0.9 | 0.00 | 0.18 | 0.18 | 81 | 1010.1 |
| 20260509233504 | 59 | 180 | 0.0 | 1.7 | 0.00 | 0.18 | 0.18 | 80 | 1010.1 |
| 20260509233004 | 59 | 180 | 1.7 | 2.6 | 0.00 | 0.18 | 0.18 | 80 | 1010.1 |
| 20260509232504 | 59 | 180 | 2.6 | 2.6 | 0.00 | 0.18 | 0.18 | 79 | 1010.0 |
| 20260509232004 | 60 | 185 | 0.0 | 1.7 | 0.00 | 0.18 | 0.18 | 80 | 1010.0 |
| 20260509231504 | 60 | 185 | 0.9 | 2.6 | 0.00 | 0.18 | 0.18 | 80 | 1010.0 |
| 20260509231004 | 60 | 185 | 0.0 | 2.6 | 0.00 | 0.18 | 0.18 | 80 | 1010.0 |
| 20260509230504 | 60 | 185 | 0.9 | 2.6 | 0.00 | 0.18 | 0.18 | 80 | 1010.0 |
| 20260509230004 | 59 | 185 | 0.9 | 2.6 | 0.00 | 0.18 | 0.18 | 81 | 1010.0 |
| 20260509225504 | 59 | 184 | 0.9 | 2.6 | 0.00 | 0.18 | 0.18 | 82 | 1009.9 |
| 20260509225003 | 59 | 186 | 1.7 | 2.6 | 0.00 | 0.18 | 0.18 | 81 | 1009.9 |
| 20260509224503 | 59 | 187 | 1.7 | 2.6 | 0.00 | 0.18 | 0.18 | 83 | 1010.0 |
| 20260509223504 | 59 | 195 | 1.7 | 2.6 | 0.00 | 0.18 | 0.18 | 83 | 1010.0 |
| 20260509223004 | 58 | 236 | 0.9 | 2.6 | 0.00 | 0.18 | 0.18 | 84 | 1010.0 |
| 20260509222004 | 58 | 232 | 1.7 | 2.6 | 0.00 | 0.18 | 0.18 | 85 | 1010.2 |
| 20260509221504 | 57 | 225 | 1.7 | 2.6 | 0.00 | 0.18 | 0.18 | 85 | 1010.3 |
| 20260509221003 | 57 | 262 | 1.7 | 2.6 | 0.00 | 0.18 | 0.18 | 85 | 1010.3 |
| 20260509220504 | 57 | 262 | 1.7 | 2.6 | 0.00 | 0.18 | 0.18 | 85 | 1010.2 |
| 20260509220004 | 57 | 266 | 0.9 | 2.6 | 0.00 | 0.18 | 0.18 | 85 | 1010.2 |
| 20260509215504 | 57 | 264 | 0.9 | 2.6 | 0.00 | 0.18 | 0.18 | 86 | 1010.2 |
| 20260509215003 | 57 | 261 | 0.9 | 2.6 | 0.00 | 0.18 | 0.18 | 85 | 1010.2 |
| 20260509214505 | 57 | 260 | 1.7 | 2.6 | 0.00 | 0.18 | 0.18 | 84 | 1010.2 |
| 20260509213504 | 57 | 236 | 1.7 | 2.6 | 0.00 | 0.18 | 0.18 | 86 | 1010.1 |
| 20260509213004 | 57 | 236 | 0.9 | 2.6 | 0.00 | 0.18 | 0.18 | 87 | 1010.2 |
| 20260509212504 | 57 | 237 | 1.7 | 2.6 | 0.00 | 0.18 | 0.18 | 88 | 1010.2 |
| 20260509212004 | 57 | 240 | 1.7 | 4.3 | 0.00 | 0.18 | 0.18 | 89 | 1010.3 |
| 20260509211504 | 56 | 234 | 0.9 | 2.6 | 0.00 | 0.18 | 0.18 | 89 | 1010.3 |
| 20260509211004 | 56 | 247 | 1.7 | 2.6 | 0.00 | 0.18 | 0.18 | 89 | 1010.5 |
| 20260509210504 | 56 | 294 | 1.7 | 2.6 | 0.00 | 0.18 | 0.18 | 88 | 1010.6 |
| 20260509205504 | 56 | 296 | 1.7 | 5.2 | 0.00 | 0.18 | 0.18 | 89 | 1010.5 |
| 20260509204505 | 56 | 289 | 3.5 | 6.1 | 0.01 | 0.18 | 0.18 | 89 | 1010.7 |
| 20260509204009 | 56 | 284 | 3.5 | 6.1 | 0.01 | 0.18 | 0.18 | 89 | 1010.8 |
| 20260509203504 | 56 | 283 | 2.6 | 5.2 | 0.01 | 0.18 | 0.18 | 90 | 1010.7 |
| 20260509203004 | 56 | 281 | 2.6 | 2.6 | 0.01 | 0.18 | 0.18 | 90 | 1010.6 |
| 20260509202006 | 55 | 222 | 1.7 | 2.6 | 0.01 | 0.18 | 0.18 | 90 | 1010.6 |
| 20260509201006 | 55 | 220 | 1.7 | 2.6 | 0.02 | 0.18 | 0.18 | 90 | 1010.6 |
| 20260509200504 | 55 | 219 | 0.9 | 2.6 | 0.02 | 0.18 | 0.18 | 90 | 1010.5 |
| 20260509200004 | 55 | 219 | 0.0 | 2.6 | 0.03 | 0.18 | 0.18 | 90 | 1010.6 |
| 20260509195504 | 55 | 219 | 0.9 | 1.7 | 0.03 | 0.18 | 0.18 | 91 | 1010.7 |
| 20260509195004 | 55 | 219 | 1.7 | 2.6 | 0.04 | 0.18 | 0.18 | 91 | 1010.8 |
| 20260509194504 | 55 | 175 | 0.9 | 2.6 | 0.03 | 0.17 | 0.17 | 91 | 1010.9 |
| 20260509194004 | 55 | 171 | 0.9 | 2.6 | 0.04 | 0.17 | 0.17 | 91 | 1011.0 |
| 20260509193504 | 55 | 170 | 1.7 | 2.6 | 0.04 | 0.17 | 0.17 | 91 | 1011.0 |
| 20260509193004 | 55 | 170 | 1.7 | 2.6 | 0.04 | 0.17 | 0.17 | 91 | 1011.1 |
| 20260509192005 | 55 | 173 | 0.0 | 1.7 | 0.04 | 0.17 | 0.17 | 91 | 1011.3 |
| 20260509191505 | 55 | 173 | 0.0 | 2.6 | 0.04 | 0.17 | 0.17 | 91 | 1011.6 |
| 20260509190005 | 55 | 167 | 2.6 | 4.3 | 0.03 | 0.15 | 0.15 | 91 | 1012.0 |
| 20260509185504 | 55 | 195 | 1.7 | 2.6 | 0.03 | 0.15 | 0.15 | 91 | 1011.8 |
| 20260509185005 | 55 | 200 | 0.9 | 2.6 | 0.03 | 0.14 | 0.14 | 90 | 1011.9 |
| 20260509184504 | 55 | 208 | 0.9 | 2.6 | 0.03 | 0.14 | 0.14 | 90 | 1012.1 |
| 20260509184004 | 55 | 208 | 0.9 | 2.6 | 0.02 | 0.13 | 0.13 | 90 | 1012.1 |
| 20260509183504 | 55 | 228 | 0.9 | 2.6 | 0.03 | 0.13 | 0.13 | 90 | 1012.0 |
| 20260509183004 | 55 | 229 | 0.9 | 2.6 | 0.04 | 0.13 | 0.13 | 90 | 1012.0 |
| 20260509182504 | 55 | 225 | 0.9 | 1.7 | 0.05 | 0.13 | 0.13 | 90 | 1012.0 |
| 20260509182005 | 55 | 225 | 2.6 | 2.6 | 0.06 | 0.13 | 0.13 | 90 | 1012.1 |
| 20260509181503 | 55 | 227 | 2.6 | 5.2 | 0.07 | 0.13 | 0.13 | 90 | 1012.1 |
| 20260509175504 | 55 | 263 | 0.9 | 2.6 | 0.09 | 0.12 | 0.12 | 89 | 1011.8 |
| 20260509175004 | 55 | 265 | 2.6 | 5.2 | 0.09 | 0.11 | 0.11 | 89 | 1011.8 |
| 20260509174504 | 55 | 266 | 1.7 | 5.2 | 0.09 | 0.11 | 0.11 | 89 | 1011.9 |
| 20260509174004 | 55 | 269 | 1.7 | 2.6 | 0.09 | 0.11 | 0.11 | 89 | 1011.9 |
| 20260509173504 | 55 | 269 | 2.6 | 5.2 | 0.09 | 0.10 | 0.10 | 89 | 1011.9 |
| 20260509173004 | 56 | 291 | 1.7 | 2.6 | 0.08 | 0.09 | 0.09 | 89 | 1011.8 |
| 20260509172504 | 56 | 301 | 1.7 | 4.3 | 0.08 | 0.08 | 0.08 | 89 | 1011.6 |
| 20260509172004 | 56 | 304 | 1.7 | 4.3 | 0.07 | 0.07 | 0.07 | 88 | 1011.6 |
| 20260509171503 | 56 | 245 | 1.7 | 5.2 | 0.06 | 0.06 | 0.06 | 88 | 1011.8 |
| 20260509171004 | 56 | 240 | 2.6 | 5.2 | 0.05 | 0.05 | 0.05 | 88 | 1012.0 |
| 20260509170504 | 57 | 226 | 1.7 | 7.0 | 0.04 | 0.04 | 0.04 | 88 | 1012.0 |
| 20260509170004 | 57 | 244 | 4.3 | 7.0 | 0.03 | 0.03 | 0.03 | 88 | 1012.0 |
| 20260509164004 | 57 | 233 | 2.6 | 7.8 | 0.02 | 0.02 | 0.02 | 85 | 1012.0 |
| 20260509163504 | 57 | 226 | 4.3 | 8.7 | 0.01 | 0.01 | 0.01 | 84 | 1012.1 |
| 20260509163004 | 58 | 234 | 4.3 | 7.8 | 0.01 | 0.01 | 0.01 | 83 | 1012.2 |
| 20260509162504 | 58 | 204 | 2.6 | 6.1 | 0.00 | 0.00 | 0.00 | 83 | 1012.1 |
| 20260509162003 | 58 | 226 | 2.6 | 7.0 | 0.00 | 0.00 | 0.00 | 83 | 1012.1 |
| 20260509161503 | 58 | 184 | 2.6 | 7.0 | 0.00 | 0.00 | 0.00 | 82 | 1012.0 |
| 20260509161003 | 58 | 200 | 2.6 | 7.8 | 0.00 | 0.00 | 0.00 | 82 | 1012.1 |
| 20260509160503 | 58 | 157 | 2.6 | 6.1 | 0.00 | 0.00 | 0.00 | 81 | 1012.2 |
| 20260509160004 | 58 | 187 | 1.7 | 4.3 | 0.00 | 0.00 | 0.00 | 82 | 1012.3 |
| 20260509155504 | 58 | 226 | 2.6 | 5.2 | 0.00 | 0.00 | 0.00 | 81 | 1012.3 |
| 20260509155004 | 57 | 188 | 1.7 | 6.1 | 0.00 | 0.00 | 0.00 | 81 | 1012.3 |
| 20260509154504 | 57 | 192 | 1.7 | 5.2 | 0.00 | 0.00 | 0.00 | 81 | 1012.4 |
| 20260509154005 | 57 | 179 | 1.7 | 6.1 | 0.00 | 0.00 | 0.00 | 81 | 1012.3 |
| 20260509153004 | 57 | 186 | 3.5 | 8.7 | 0.00 | 0.00 | 0.00 | 81 | 1012.4 |
| 20260509152505 | 57 | 237 | 2.6 | 5.2 | 0.00 | 0.00 | 0.00 | 82 | 1012.4 |
| 20260509152004 | 57 | 178 | 0.9 | 4.3 | 0.00 | 0.00 | 0.00 | 82 | 1012.3 |
| 20260509151504 | 57 | 158 | 2.6 | 5.2 | 0.00 | 0.00 | 0.00 | 82 | 1012.3 |
| 20260509151004 | 57 | 144 | 1.7 | 5.2 | 0.00 | 0.00 | 0.00 | 82 | 1012.2 |
| 20260509150504 | 57 | 149 | 2.6 | 4.3 | 0.00 | 0.00 | 0.00 | 81 | 1012.1 |
| 20260509145504 | 57 | 157 | 1.7 | 4.3 | 0.00 | 0.00 | 0.00 | 82 | 1012.1 |
| 20260509145004 | 57 | 161 | 1.7 | 5.2 | 0.00 | 0.00 | 0.00 | 81 | 1012.2 |
| 20260509144504 | 57 | 165 | 2.6 | 5.2 | 0.00 | 0.00 | 0.00 | 81 | 1012.4 |
| 20260509144005 | 57 | 167 | 2.6 | 4.3 | 0.00 | 0.00 | 0.00 | 81 | 1012.3 |
| 20260509143004 | 57 | 202 | 1.7 | 4.3 | 0.00 | 0.00 | 0.00 | 81 | 1012.2 |
| 20260509142504 | 57 | 201 | 0.9 | 2.6 | 0.00 | 0.00 | 0.00 | 81 | 1012.3 |
| 20260509142004 | 57 | 205 | 0.9 | 2.6 | 0.00 | 0.00 | 0.00 | 81 | 1012.3 |
| 20260509141504 | 57 | 205 | 1.7 | 2.6 | 0.00 | 0.00 | 0.00 | 80 | 1012.2 |
| 20260509141007 | 57 | 179 | 1.7 | 4.3 | 0.00 | 0.00 | 0.00 | 81 | 1012.2 |
| 20260509140504 | 57 | 177 | 1.7 | 5.2 | 0.00 | 0.00 | 0.00 | 80 | 1012.3 |
| 20260509140005 | 56 | 177 | 0.9 | 2.6 | 0.00 | 0.00 | 0.00 | 80 | 1012.2 |
| 20260509135504 | 56 | 176 | 1.7 | 2.6 | 0.00 | 0.00 | 0.00 | 80 | 1012.0 |
| 20260509135004 | 56 | 177 | 2.6 | 7.0 | 0.00 | 0.00 | 0.00 | 80 | 1012.0 |
| 20260509134004 | 56 | 168 | 2.6 | 6.1 | 0.00 | 0.00 | 0.00 | 80 | 1011.9 |
| 20260509133504 | 56 | 178 | 2.6 | 5.2 | 0.00 | 0.00 | 0.00 | 80 | 1012.0 |
| 20260509132505 | 56 | 148 | 2.6 | 6.1 | 0.00 | 0.00 | 0.00 | 81 | 1012.0 |
| 20260509132004 | 56 | 94 | 0.9 | 2.6 | 0.00 | 0.00 | 0.00 | 82 | 1012.0 |
| 20260509131503 | 55 | 92 | 0.9 | 2.6 | 0.00 | 0.00 | 0.00 | 82 | 1012.0 |
| 20260509130504 | 55 | 65 | 1.7 | 2.6 | 0.00 | 0.00 | 0.00 | 83 | 1012.1 |
| 20260509130004 | 55 | 65 | 1.7 | 2.6 | 0.00 | 0.00 | 0.00 | 83 | 1012.0 |
| 20260509124504 | 54 | 65 | 0.9 | 2.6 | 0.00 | 0.00 | 0.00 | 83 | 1012.2 |
| 20260509124004 | 54 | 65 | 0.9 | 1.7 | 0.00 | 0.00 | 0.00 | 83 | 1012.3 |
| 20260509123503 | 54 | 65 | 0.9 | 1.7 | 0.00 | 0.00 | 0.00 | 83 | 1012.3 |
| 20260509122004 | 53 | 65 | 0.9 | 1.7 | 0.00 | 0.00 | 0.00 | 84 | 1012.4 |
| 20260509121504 | 53 | 65 | 0.9 | 1.7 | 0.00 | 0.00 | 0.00 | 84 | 1012.4 |
| 20260509121004 | 53 | 65 | 0.9 | 1.7 | 0.00 | 0.00 | 0.00 | 84 | 1012.4 |
| 20260509120504 | 53 | 65 | 0.9 | 1.7 | 0.00 | 0.00 | 0.00 | 84 | 1012.4 |
| 20260509120004 | 52 | 65 | 0.0 | 0.9 | 0.00 | 0.00 | 0.00 | 84 | 1012.4 |
| 20260509115506 | 52 | 65 | 0.9 | 1.7 | 0.00 | 0.00 | 0.00 | 84 | 1012.3 |
| 20260509115004 | 52 | 65 | 0.9 | 1.7 | 0.00 | 0.00 | 0.00 | 84 | 1012.3 |
| 20260509114504 | 52 | 65 | 0.9 | 2.6 | 0.00 | 0.00 | 0.00 | 85 | 1012.2 |
| 20260509114004 | 52 | 65 | 1.7 | 2.6 | 0.00 | 0.00 | 0.00 | 85 | 1012.2 |
| 20260509113503 | 52 | 61 | 0.9 | 2.6 | 0.00 | 0.00 | 0.00 | 86 | 1012.0 |
| 20260509112504 | 51 | 61 | 1.7 | 2.6 | 0.00 | 0.00 | 0.00 | 85 | 1012.3 |
| 20260509112004 | 51 | 61 | 1.7 | 2.6 | 0.00 | 0.00 | 0.00 | 85 | 1012.3 |
| 20260509111503 | 51 | 61 | 0.9 | 2.6 | 0.00 | 0.00 | 0.00 | 85 | 1012.2 |
| 20260509111003 | 51 | 61 | 1.7 | 2.6 | 0.00 | 0.00 | 0.00 | 85 | 1012.0 |
| 20260509110504 | 51 | 61 | 1.7 | 2.6 | 0.00 | 0.00 | 0.00 | 85 | 1012.1 |
| 20260509110004 | 51 | 61 | 1.7 | 2.6 | 0.00 | 0.00 | 0.00 | 85 | 1012.1 |
| 20260509105504 | 51 | 61 | 3.5 | 5.2 | 0.00 | 0.00 | 0.00 | 86 | 1011.8 |
| 20260509105004 | 51 | 56 | 2.6 | 2.6 | 0.00 | 0.00 | 0.00 | 86 | 1011.8 |
| 20260509104504 | 51 | 56 | 1.7 | 2.6 | 0.00 | 0.00 | 0.00 | 85 | 1011.9 |
| 20260509104004 | 51 | 56 | 2.6 | 4.3 | 0.00 | 0.00 | 0.00 | 85 | 1011.8 |
| 20260509103004 | 51 | 63 | 0.0 | 1.7 | 0.00 | 0.00 | 0.00 | 85 | 1012.0 |
| 20260509102504 | 51 | 63 | 0.9 | 1.7 | 0.00 | 0.00 | 0.00 | 85 | 1012.0 |
| 20260509102004 | 51 | 63 | 2.6 | 4.3 | 0.00 | 0.00 | 0.00 | 85 | 1012.0 |
| 20260509101503 | 51 | 61 | 1.7 | 2.6 | 0.00 | 0.00 | 0.00 | 84 | 1011.8 |
| 20260509101004 | 51 | 61 | 2.6 | 5.2 | 0.00 | 0.00 | 0.00 | 84 | 1011.8 |
| 20260509100504 | 51 | 62 | 4.3 | 5.2 | 0.00 | 0.00 | 0.00 | 84 | 1011.8 |
| 20260509100005 | 51 | 59 | 1.7 | 2.6 | 0.00 | 0.00 | 0.00 | 84 | 1011.9 |
| 20260509095503 | 51 | 57 | 0.9 | 2.6 | 0.00 | 0.00 | 0.00 | 84 | 1012.0 |
| 20260509095003 | 51 | 57 | 0.9 | 2.6 | 0.00 | 0.00 | 0.00 | 84 | 1012.0 |
| 20260509094504 | 51 | 57 | 1.7 | 2.6 | 0.00 | 0.00 | 0.00 | 84 | 1012.0 |
| 20260509094004 | 51 | 57 | 1.7 | 2.6 | 0.00 | 0.00 | 0.00 | 84 | 1012.1 |